Главная страница
METAR-TAF:

METAR-TAF

Аэропорты :

Sandane, Норвегия

широта: 61-50N, долгота: 006-07E, высота над уровнем моря: 6 м

Текущие метеонаблюдения

Эта сводка был подготовлена 21 минут назад, в 21:20 UTC
Ветер 13 Узел переменных направлений с порывами до 26 Узел
Температура 14°C
Влажность 44%
Давление 1019 hPa
Видимость 10 км и более
небольшая облачность на высоте 6500 фута

METAR: ENSD 152120Z VRB13G26KT 9999 FEW065 14/02 Q1019 RMK WIND 1138FT 19014KT

Время: 22:41 (21:41 UTC)


TAF: отсутствует

Метеонаблюдения и прогнозы для более 4000 аэропортов (сводки METAR и TAF).

Имеющиеся станции представлены на карте желтыми и красными точками.

Чтобы увидеть название станции, наведите на нее мышь.

Затем щелкните, чтобы увидеть метеонаблюдения и метеопрогнозы.

Управление картой: чтобы увеличить масштаб, щелкните зеленые кнопки с черным крестиком; чтобы уменьшить масштаб, щелкните зеленую кнопку с тире; для просмотра соседних карт щелкайте зеленые стрелки.


METAR-TAF: